<?xml version="1.0" encoding="utf-8"?>
<gpx xmlns:xsi="http://www.w3.org/2001/XMLSchema-instance" xmlns:xsd="http://www.w3.org/2001/XMLSchema" version="1.1" creator="Shapelink.com" xmlns="http://www.topografix.com/GPX/1/1" xmlns:gpxtpx="http://www.garmin.com/xmlschemas/TrackPointExtension/v1">
  <metadata>
    <name>Längdskidåkning - Klassisk 10.00 km, 2011-01-21</name>
    <desc></desc>
    <author><name>Alexander Engvall</name></author> 
    <time>2011-01-21T19:36:24Z</time>
  </metadata>
  <trk>
    <name>Längdskidåkning - Klassisk 10.00 km, 2011-01-21</name>
    <trkseg>
      <trkpt lat="59.4853233" lon="17.876644">
        <ele>16.9604</ele>
        <time>2011-01-21T19:36:24Z</time>
      </trkpt>
      <trkpt lat="59.4854542" lon="17.8767077">
        <ele>17.4412</ele>
        <time>2011-01-21T19:36:28Z</time>
      </trkpt>
      <trkpt lat="59.4856258" lon="17.8768279">
        <ele>16.9604</ele>
        <time>2011-01-21T19:36:33Z</time>
      </trkpt>
      <trkpt lat="59.4857818" lon="17.8770474">
        <ele>15.999</ele>
        <time>2011-01-21T19:36:37Z</time>
      </trkpt>
      <trkpt lat="59.4859017" lon="17.8771771">
        <ele>15.0377</ele>
        <time>2011-01-21T19:36:40Z</time>
      </trkpt>
      <trkpt lat="59.4860651" lon="17.8773526">
        <ele>14.0764</ele>
        <time>2011-01-21T19:36:44Z</time>
      </trkpt>
      <trkpt lat="59.4862475" lon="17.8774775">
        <ele>13.5958</ele>
        <time>2011-01-21T19:36:48Z</time>
      </trkpt>
      <trkpt lat="59.486381" lon="17.8775899">
        <ele>13.5958</ele>
        <time>2011-01-21T19:36:51Z</time>
      </trkpt>
      <trkpt lat="59.4865835" lon="17.8778287">
        <ele>12.6344</ele>
        <time>2011-01-21T19:36:56Z</time>
      </trkpt>
      <trkpt lat="59.4866681" lon="17.8779023">
        <ele>13.1151</ele>
        <time>2011-01-21T19:36:58Z</time>
      </trkpt>
      <trkpt lat="59.4868666" lon="17.8781484">
        <ele>11.6732</ele>
        <time>2011-01-21T19:37:03Z</time>
      </trkpt>
      <trkpt lat="59.487098" lon="17.8781884">
        <ele>10.2312</ele>
        <time>2011-01-21T19:37:08Z</time>
      </trkpt>
      <trkpt lat="59.4871844" lon="17.8781044">
        <ele>9.75061</ele>
        <time>2011-01-21T19:37:10Z</time>
      </trkpt>
      <trkpt lat="59.4873125" lon="17.8779209">
        <ele>8.78918</ele>
        <time>2011-01-21T19:37:13Z</time>
      </trkpt>
      <trkpt lat="59.4874043" lon="17.8778173">
        <ele>7.82788</ele>
        <time>2011-01-21T19:37:15Z</time>
      </trkpt>
      <trkpt lat="59.4876383" lon="17.8776685">
        <ele>6.38586</ele>
        <time>2011-01-21T19:37:19Z</time>
      </trkpt>
      <trkpt lat="59.4877942" lon="17.8774925">
        <ele>4.46326</ele>
        <time>2011-01-21T19:37:22Z</time>
      </trkpt>
      <trkpt lat="59.4878688" lon="17.8773834">
        <ele>4.46326</ele>
        <time>2011-01-21T19:37:24Z</time>
      </trkpt>
      <trkpt lat="59.4879713" lon="17.8771624">
        <ele>2.54065</ele>
        <time>2011-01-21T19:37:27Z</time>
      </trkpt>
      <trkpt lat="59.4880755" lon="17.8768233">
        <ele>2.06006</ele>
        <time>2011-01-21T19:37:31Z</time>
      </trkpt>
      <trkpt lat="59.488197" lon="17.8766202">
        <ele>2.06006</ele>
        <time>2011-01-21T19:37:35Z</time>
      </trkpt>
      <trkpt lat="59.4883644" lon="17.8766113">
        <ele>2.54065</ele>
        <time>2011-01-21T19:37:40Z</time>
      </trkpt>
      <trkpt lat="59.4884707" lon="17.8766679">
        <ele>2.54065</ele>
        <time>2011-01-21T19:37:43Z</time>
      </trkpt>
      <trkpt lat="59.4887047" lon="17.8766797">
        <ele>4.94385</ele>
        <time>2011-01-21T19:37:49Z</time>
      </trkpt>
      <trkpt lat="59.4888769" lon="17.8764973">
        <ele>8.30859</ele>
        <time>2011-01-21T19:37:54Z</time>
      </trkpt>
      <trkpt lat="59.4890398" lon="17.8764366">
        <ele>9.75061</ele>
        <time>2011-01-21T19:37:58Z</time>
      </trkpt>
      <trkpt lat="59.4891217" lon="17.8764472">
        <ele>10.2312</ele>
        <time>2011-01-21T19:38:00Z</time>
      </trkpt>
      <trkpt lat="59.4892399" lon="17.8765713">
        <ele>10.7118</ele>
        <time>2011-01-21T19:38:03Z</time>
      </trkpt>
      <trkpt lat="59.4893109" lon="17.8766886">
        <ele>11.1925</ele>
        <time>2011-01-21T19:38:05Z</time>
      </trkpt>
      <trkpt lat="59.4895249" lon="17.8769348">
        <ele>12.1538</ele>
        <time>2011-01-21T19:38:10Z</time>
      </trkpt>
      <trkpt lat="59.4896946" lon="17.8770481">
        <ele>12.6344</ele>
        <time>2011-01-21T19:38:14Z</time>
      </trkpt>
      <trkpt lat="59.4899041" lon="17.8770956">
        <ele>13.1151</ele>
        <time>2011-01-21T19:38:19Z</time>
      </trkpt>
      <trkpt lat="59.4901209" lon="17.8770528">
        <ele>14.0764</ele>
        <time>2011-01-21T19:38:24Z</time>
      </trkpt>
      <trkpt lat="59.4902684" lon="17.8769089">
        <ele>14.0764</ele>
        <time>2011-01-21T19:38:28Z</time>
      </trkpt>
      <trkpt lat="59.4903257" lon="17.8767921">
        <ele>13.5958</ele>
        <time>2011-01-21T19:38:30Z</time>
      </trkpt>
      <trkpt lat="59.4903711" lon="17.8766573">
        <ele>13.1151</ele>
        <time>2011-01-21T19:38:32Z</time>
      </trkpt>
      <trkpt lat="59.4904619" lon="17.8764812">
        <ele>12.6344</ele>
        <time>2011-01-21T19:38:35Z</time>
      </trkpt>
      <trkpt lat="59.4906526" lon="17.8763483">
        <ele>12.1538</ele>
        <time>2011-01-21T19:38:40Z</time>
      </trkpt>
      <trkpt lat="59.4908448" lon="17.876414">
        <ele>12.6344</ele>
        <time>2011-01-21T19:38:44Z</time>
      </trkpt>
      <trkpt lat="59.491083" lon="17.8765746">
        <ele>13.5958</ele>
        <time>2011-01-21T19:38:50Z</time>
      </trkpt>
      <trkpt lat="59.4912799" lon="17.8767835">
        <ele>13.5958</ele>
        <time>2011-01-21T19:38:55Z</time>
      </trkpt>
      <trkpt lat="59.4913702" lon="17.8768544">
        <ele>13.5958</ele>
        <time>2011-01-21T19:38:57Z</time>
      </trkpt>
      <trkpt lat="59.4915745" lon="17.8769612">
        <ele>14.0764</ele>
        <time>2011-01-21T19:39:01Z</time>
      </trkpt>
      <trkpt lat="59.4919083" lon="17.8770024">
        <ele>13.5958</ele>
        <time>2011-01-21T19:39:08Z</time>
      </trkpt>
      <trkpt lat="59.492101" lon="17.8770805">
        <ele>13.1151</ele>
        <time>2011-01-21T19:39:13Z</time>
      </trkpt>
      <trkpt lat="59.4923421" lon="17.8771864">
        <ele>13.1151</ele>
        <time>2011-01-21T19:39:18Z</time>
      </trkpt>
      <trkpt lat="59.4923932" lon="17.8772044">
        <ele>13.1151</ele>
        <time>2011-01-21T19:39:19Z</time>
      </trkpt>
      <trkpt lat="59.4926253" lon="17.8772946">
        <ele>10.7118</ele>
        <time>2011-01-21T19:39:25Z</time>
      </trkpt>
      <trkpt lat="59.4928605" lon="17.8774423">
        <ele>8.78918</ele>
        <time>2011-01-21T19:39:30Z</time>
      </trkpt>
      <trkpt lat="59.4930645" lon="17.8775737">
        <ele>6.86646</ele>
        <time>2011-01-21T19:39:34Z</time>
      </trkpt>
      <trkpt lat="59.4934046" lon="17.8777583">
        <ele>2.54065</ele>
        <time>2011-01-21T19:39:40Z</time>
      </trkpt>
      <trkpt lat="59.4934668" lon="17.8778038">
        <ele>1.09863</ele>
        <time>2011-01-21T19:39:41Z</time>
      </trkpt>
      <trkpt lat="59.4937066" lon="17.8779961">
        <ele>0</ele>
        <time>2011-01-21T19:39:45Z</time>
      </trkpt>
      <trkpt lat="59.494015" lon="17.8780809">
        <ele>0</ele>
        <time>2011-01-21T19:39:50Z</time>
      </trkpt>
      <trkpt lat="59.4941544" lon="17.8779493">
        <ele>0</ele>
        <time>2011-01-21T19:39:53Z</time>
      </trkpt>
      <trkpt lat="59.494303" lon="17.8777303">
        <ele>0</ele>
        <time>2011-01-21T19:39:57Z</time>
      </trkpt>
      <trkpt lat="59.4944201" lon="17.8775856">
        <ele>1.57935</ele>
        <time>2011-01-21T19:40:00Z</time>
      </trkpt>
      <trkpt lat="59.4944963" lon="17.8775219">
        <ele>1.57935</ele>
        <time>2011-01-21T19:40:02Z</time>
      </trkpt>
      <trkpt lat="59.4946392" lon="17.8774795">
        <ele>2.06006</ele>
        <time>2011-01-21T19:40:05Z</time>
      </trkpt>
      <trkpt lat="59.4948909" lon="17.8774999">
        <ele>3.50195</ele>
        <time>2011-01-21T19:40:10Z</time>
      </trkpt>
      <trkpt lat="59.4950545" lon="17.8774542">
        <ele>4.94385</ele>
        <time>2011-01-21T19:40:14Z</time>
      </trkpt>
      <trkpt lat="59.4952436" lon="17.8773738">
        <ele>8.78918</ele>
        <time>2011-01-21T19:40:19Z</time>
      </trkpt>
      <trkpt lat="59.4953542" lon="17.8772728">
        <ele>10.2312</ele>
        <time>2011-01-21T19:40:23Z</time>
      </trkpt>
      <trkpt lat="59.4954131" lon="17.8770952">
        <ele>11.1925</ele>
        <time>2011-01-21T19:40:27Z</time>
      </trkpt>
      <trkpt lat="59.4954706" lon="17.8767715">
        <ele>11.6732</ele>
        <time>2011-01-21T19:40:33Z</time>
      </trkpt>
      <trkpt lat="59.4954787" lon="17.8765361">
        <ele>11.6732</ele>
        <time>2011-01-21T19:40:37Z</time>
      </trkpt>
      <trkpt lat="59.4954598" lon="17.8763726">
        <ele>11.6732</ele>
        <time>2011-01-21T19:40:40Z</time>
      </trkpt>
      <trkpt lat="59.495411" lon="17.876182">
        <ele>13.1151</ele>
        <time>2011-01-21T19:40:44Z</time>
      </trkpt>
      <trkpt lat="59.4953964" lon="17.8760914">
        <ele>13.1151</ele>
        <time>2011-01-21T19:40:48Z</time>
      </trkpt>
      <trkpt lat="59.4953713" lon="17.875977">
        <ele>13.5958</ele>
        <time>2011-01-21T19:40:52Z</time>
      </trkpt>
      <trkpt lat="59.4952238" lon="17.875808">
        <ele>11.1925</ele>
        <time>2011-01-21T19:40:56Z</time>
      </trkpt>
      <trkpt lat="59.4951581" lon="17.8757171">
        <ele>10.2312</ele>
        <time>2011-01-21T19:40:57Z</time>
      </trkpt>
      <trkpt lat="59.494941" lon="17.875505">
        <ele>9.75061</ele>
        <time>2011-01-21T19:41:00Z</time>
      </trkpt>
      <trkpt lat="59.4948012" lon="17.8754141">
        <ele>9.2699</ele>
        <time>2011-01-21T19:41:02Z</time>
      </trkpt>
      <trkpt lat="59.4945756" lon="17.8753452">
        <ele>8.30859</ele>
        <time>2011-01-21T19:41:06Z</time>
      </trkpt>
      <trkpt lat="59.4944315" lon="17.8753474">
        <ele>7.82788</ele>
        <time>2011-01-21T19:41:09Z</time>
      </trkpt>
      <trkpt lat="59.49435" lon="17.8753509">
        <ele>7.34717</ele>
        <time>2011-01-21T19:41:11Z</time>
      </trkpt>
      <trkpt lat="59.4942429" lon="17.8753714">
        <ele>6.86646</ele>
        <time>2011-01-21T19:41:14Z</time>
      </trkpt>
      <trkpt lat="59.4940875" lon="17.8754662">
        <ele>7.34717</ele>
        <time>2011-01-21T19:41:19Z</time>
      </trkpt>
      <trkpt lat="59.4939754" lon="17.8755619">
        <ele>6.86646</ele>
        <time>2011-01-21T19:41:23Z</time>
      </trkpt>
      <trkpt lat="59.4938718" lon="17.8756819">
        <ele>7.34717</ele>
        <time>2011-01-21T19:41:27Z</time>
      </trkpt>
      <trkpt lat="59.4937337" lon="17.8758609">
        <ele>8.30859</ele>
        <time>2011-01-21T19:41:32Z</time>
      </trkpt>
      <trkpt lat="59.4936172" lon="17.8760106">
        <ele>8.78918</ele>
        <time>2011-01-21T19:41:37Z</time>
      </trkpt>
      <trkpt lat="59.4935147" lon="17.8761396">
        <ele>7.82788</ele>
        <time>2011-01-21T19:41:41Z</time>
      </trkpt>
      <trkpt lat="59.4934157" lon="17.8762315">
        <ele>6.86646</ele>
        <time>2011-01-21T19:41:45Z</time>
      </trkpt>
      <trkpt lat="59.4932958" lon="17.8763261">
        <ele>5.90527</ele>
        <time>2011-01-21T19:41:49Z</time>
      </trkpt>
      <trkpt lat="59.4931495" lon="17.8762877">
        <ele>7.82788</ele>
        <time>2011-01-21T19:41:54Z</time>
      </trkpt>
      <trkpt lat="59.4929972" lon="17.8762857">
        <ele>10.7118</ele>
        <time>2011-01-21T19:41:59Z</time>
      </trkpt>
      <trkpt lat="59.4928665" lon="17.8763235">
        <ele>13.1151</ele>
        <time>2011-01-21T19:42:04Z</time>
      </trkpt>
      <trkpt lat="59.4927434" lon="17.8763957">
        <ele>13.5958</ele>
        <time>2011-01-21T19:42:08Z</time>
      </trkpt>
      <trkpt lat="59.4926101" lon="17.876484">
        <ele>11.6732</ele>
        <time>2011-01-21T19:42:12Z</time>
      </trkpt>
      <trkpt lat="59.4923894" lon="17.8766679">
        <ele>8.30859</ele>
        <time>2011-01-21T19:42:18Z</time>
      </trkpt>
      <trkpt lat="59.4922921" lon="17.8767847">
        <ele>5.90527</ele>
        <time>2011-01-21T19:42:21Z</time>
      </trkpt>
      <trkpt lat="59.4921553" lon="17.8769096">
        <ele>3.50195</ele>
        <time>2011-01-21T19:42:25Z</time>
      </trkpt>
      <trkpt lat="59.4919443" lon="17.8771009">
        <ele>1.09863</ele>
        <time>2011-01-21T19:42:31Z</time>
      </trkpt>
      <trkpt lat="59.4918749" lon="17.8771388">
        <ele>0.618042</ele>
        <time>2011-01-21T19:42:33Z</time>
      </trkpt>
      <trkpt lat="59.4916814" lon="17.8771645">
        <ele>0</ele>
        <time>2011-01-21T19:42:38Z</time>
      </trkpt>
      <trkpt lat="59.4914975" lon="17.8771109">
        <ele>0</ele>
        <time>2011-01-21T19:42:43Z</time>
      </trkpt>
      <trkpt lat="59.4913494" lon="17.8770444">
        <ele>0</ele>
        <time>2011-01-21T19:42:47Z</time>
      </trkpt>
      <trkpt lat="59.4912474" lon="17.8769781">
        <ele>0.618042</ele>
        <time>2011-01-21T19:42:51Z</time>
      </trkpt>
      <trkpt lat="59.4911696" lon="17.876899">
        <ele>2.54065</ele>
        <time>2011-01-21T19:42:54Z</time>
      </trkpt>
      <trkpt lat="59.4910208" lon="17.8767262">
        <ele>5.90527</ele>
        <time>2011-01-21T19:43:00Z</time>
      </trkpt>
      <trkpt lat="59.4909335" lon="17.8766242">
        <ele>8.30859</ele>
        <time>2011-01-21T19:43:04Z</time>
      </trkpt>
      <trkpt lat="59.4908149" lon="17.8765467">
        <ele>9.75061</ele>
        <time>2011-01-21T19:43:08Z</time>
      </trkpt>
      <trkpt lat="59.4906343" lon="17.8764717">
        <ele>10.7118</ele>
        <time>2011-01-21T19:43:12Z</time>
      </trkpt>
      <trkpt lat="59.490498" lon="17.8764436">
        <ele>10.7118</ele>
        <time>2011-01-21T19:43:15Z</time>
      </trkpt>
      <trkpt lat="59.4903694" lon="17.8764151">
        <ele>10.2312</ele>
        <time>2011-01-21T19:43:18Z</time>
      </trkpt>
      <trkpt lat="59.4901812" lon="17.8764384">
        <ele>8.78918</ele>
        <time>2011-01-21T19:43:23Z</time>
      </trkpt>
      <trkpt lat="59.4899843" lon="17.8765508">
        <ele>6.86646</ele>
        <time>2011-01-21T19:43:29Z</time>
      </trkpt>
      <trkpt lat="59.4899458" lon="17.8765739">
        <ele>6.86646</ele>
        <time>2011-01-21T19:43:31Z</time>
      </trkpt>
      <trkpt lat="59.4898233" lon="17.8765731">
        <ele>6.86646</ele>
        <time>2011-01-21T19:43:36Z</time>
      </trkpt>
      <trkpt lat="59.4896829" lon="17.8764321">
        <ele>6.38586</ele>
        <time>2011-01-21T19:43:41Z</time>
      </trkpt>
      <trkpt lat="59.4895953" lon="17.8762774">
        <ele>7.34717</ele>
        <time>2011-01-21T19:43:45Z</time>
      </trkpt>
      <trkpt lat="59.4895767" lon="17.8762446">
        <ele>7.34717</ele>
        <time>2011-01-21T19:43:46Z</time>
      </trkpt>
      <trkpt lat="59.4895047" lon="17.8760917">
        <ele>8.30859</ele>
        <time>2011-01-21T19:43:50Z</time>
      </trkpt>
      <trkpt lat="59.4894156" lon="17.8758539">
        <ele>7.82788</ele>
        <time>2011-01-21T19:43:54Z</time>
      </trkpt>
      <trkpt lat="59.4893336" lon="17.8755457">
        <ele>7.34717</ele>
        <time>2011-01-21T19:43:58Z</time>
      </trkpt>
      <trkpt lat="59.489254" lon="17.8753271">
        <ele>7.34717</ele>
        <time>2011-01-21T19:44:02Z</time>
      </trkpt>
      <trkpt lat="59.4891668" lon="17.8750501">
        <ele>7.34717</ele>
        <time>2011-01-21T19:44:07Z</time>
      </trkpt>
      <trkpt lat="59.4891" lon="17.8748176">
        <ele>7.34717</ele>
        <time>2011-01-21T19:44:12Z</time>
      </trkpt>
      <trkpt lat="59.4890463" lon="17.8746197">
        <ele>7.82788</ele>
        <time>2011-01-21T19:44:16Z</time>
      </trkpt>
      <trkpt lat="59.4890347" lon="17.8744608">
        <ele>6.86646</ele>
        <time>2011-01-21T19:44:19Z</time>
      </trkpt>
      <trkpt lat="59.48904" lon="17.8742409">
        <ele>7.82788</ele>
        <time>2011-01-21T19:44:24Z</time>
      </trkpt>
      <trkpt lat="59.4890595" lon="17.8740188">
        <ele>8.78918</ele>
        <time>2011-01-21T19:44:29Z</time>
      </trkpt>
      <trkpt lat="59.4890743" lon="17.873825">
        <ele>10.2312</ele>
        <time>2011-01-21T19:44:34Z</time>
      </trkpt>
      <trkpt lat="59.4891062" lon="17.8735496">
        <ele>12.1538</ele>
        <time>2011-01-21T19:44:40Z</time>
      </trkpt>
      <trkpt lat="59.4891254" lon="17.8733359">
        <ele>13.5958</ele>
        <time>2011-01-21T19:44:44Z</time>
      </trkpt>
      <trkpt lat="59.4891684" lon="17.8730794">
        <ele>15.0377</ele>
        <time>2011-01-21T19:44:49Z</time>
      </trkpt>
      <trkpt lat="59.4892097" lon="17.8728522">
        <ele>15.999</ele>
        <time>2011-01-21T19:44:54Z</time>
      </trkpt>
      <trkpt lat="59.4892259" lon="17.8726">
        <ele>15.999</ele>
        <time>2011-01-21T19:44:59Z</time>
      </trkpt>
      <trkpt lat="59.4892131" lon="17.8724201">
        <ele>16.4797</ele>
        <time>2011-01-21T19:45:03Z</time>
      </trkpt>
      <trkpt lat="59.4891923" lon="17.8722937">
        <ele>17.4412</ele>
        <time>2011-01-21T19:45:06Z</time>
      </trkpt>
      <trkpt lat="59.4891493" lon="17.8720359">
        <ele>19.3638</ele>
        <time>2011-01-21T19:45:12Z</time>
      </trkpt>
      <trkpt lat="59.4890984" lon="17.8718114">
        <ele>19.8444</ele>
        <time>2011-01-21T19:45:17Z</time>
      </trkpt>
      <trkpt lat="59.4890657" lon="17.8716482">
        <ele>20.325</ele>
        <time>2011-01-21T19:45:21Z</time>
      </trkpt>
      <trkpt lat="59.4890235" lon="17.8714017">
        <ele>21.767</ele>
        <time>2011-01-21T19:45:27Z</time>
      </trkpt>
      <trkpt lat="59.4889854" lon="17.8711961">
        <ele>22.2476</ele>
        <time>2011-01-21T19:45:32Z</time>
      </trkpt>
      <trkpt lat="59.4889507" lon="17.8710008">
        <ele>22.7283</ele>
        <time>2011-01-21T19:45:36Z</time>
      </trkpt>
      <trkpt lat="59.4889161" lon="17.8707703">
        <ele>23.6896</ele>
        <time>2011-01-21T19:45:41Z</time>
      </trkpt>
      <trkpt lat="59.48891" lon="17.8705767">
        <ele>23.6896</ele>
        <time>2011-01-21T19:45:45Z</time>
      </trkpt>
      <trkpt lat="59.4889146" lon="17.8703502">
        <ele>24.651</ele>
        <time>2011-01-21T19:45:49Z</time>
      </trkpt>
      <trkpt lat="59.4889379" lon="17.8700768">
        <ele>24.1703</ele>
        <time>2011-01-21T19:45:54Z</time>
      </trkpt>
      <trkpt lat="59.488964" lon="17.8699308">
        <ele>24.1703</ele>
        <time>2011-01-21T19:45:57Z</time>
      </trkpt>
      <trkpt lat="59.4890292" lon="17.8697113">
        <ele>24.1703</ele>
        <time>2011-01-21T19:46:02Z</time>
      </trkpt>
      <trkpt lat="59.4891039" lon="17.8695509">
        <ele>24.651</ele>
        <time>2011-01-21T19:46:06Z</time>
      </trkpt>
      <trkpt lat="59.4891979" lon="17.869448">
        <ele>25.1317</ele>
        <time>2011-01-21T19:46:10Z</time>
      </trkpt>
      <trkpt lat="59.4893147" lon="17.8693821">
        <ele>25.6123</ele>
        <time>2011-01-21T19:46:14Z</time>
      </trkpt>
      <trkpt lat="59.4894193" lon="17.8693266">
        <ele>25.6123</ele>
        <time>2011-01-21T19:46:18Z</time>
      </trkpt>
      <trkpt lat="59.489541" lon="17.869237">
        <ele>26.0929</ele>
        <time>2011-01-21T19:46:22Z</time>
      </trkpt>
      <trkpt lat="59.4896493" lon="17.8691218">
        <ele>26.0929</ele>
        <time>2011-01-21T19:46:26Z</time>
      </trkpt>
      <trkpt lat="59.4898014" lon="17.8689558">
        <ele>25.6123</ele>
        <time>2011-01-21T19:46:32Z</time>
      </trkpt>
      <trkpt lat="59.4898988" lon="17.8688429">
        <ele>26.0929</ele>
        <time>2011-01-21T19:46:36Z</time>
      </trkpt>
      <trkpt lat="59.4900439" lon="17.8687114">
        <ele>25.6123</ele>
        <time>2011-01-21T19:46:42Z</time>
      </trkpt>
      <trkpt lat="59.4902133" lon="17.8686784">
        <ele>27.0543</ele>
        <time>2011-01-21T19:46:48Z</time>
      </trkpt>
      <trkpt lat="59.4903651" lon="17.8687092">
        <ele>27.5349</ele>
        <time>2011-01-21T19:46:53Z</time>
      </trkpt>
      <trkpt lat="59.4905027" lon="17.8687232">
        <ele>28.0155</ele>
        <time>2011-01-21T19:46:58Z</time>
      </trkpt>
      <trkpt lat="59.4906556" lon="17.8687457">
        <ele>29.4575</ele>
        <time>2011-01-21T19:47:04Z</time>
      </trkpt>
      <trkpt lat="59.490823" lon="17.8688009">
        <ele>29.4575</ele>
        <time>2011-01-21T19:47:10Z</time>
      </trkpt>
      <trkpt lat="59.4909582" lon="17.8688579">
        <ele>29.9381</ele>
        <time>2011-01-21T19:47:16Z</time>
      </trkpt>
      <trkpt lat="59.4910685" lon="17.8688989">
        <ele>30.4188</ele>
        <time>2011-01-21T19:47:20Z</time>
      </trkpt>
      <trkpt lat="59.4912037" lon="17.8689665">
        <ele>30.4188</ele>
        <time>2011-01-21T19:47:24Z</time>
      </trkpt>
      <trkpt lat="59.4913089" lon="17.8690832">
        <ele>30.4188</ele>
        <time>2011-01-21T19:47:28Z</time>
      </trkpt>
      <trkpt lat="59.4914056" lon="17.869185">
        <ele>31.8607</ele>
        <time>2011-01-21T19:47:33Z</time>
      </trkpt>
      <trkpt lat="59.4914942" lon="17.8692712">
        <ele>33.7834</ele>
        <time>2011-01-21T19:47:38Z</time>
      </trkpt>
      <trkpt lat="59.4915773" lon="17.8693482">
        <ele>35.2255</ele>
        <time>2011-01-21T19:47:45Z</time>
      </trkpt>
      <trkpt lat="59.4916613" lon="17.8694229">
        <ele>35.7061</ele>
        <time>2011-01-21T19:47:51Z</time>
      </trkpt>
      <trkpt lat="59.4916766" lon="17.8694374">
        <ele>36.1868</ele>
        <time>2011-01-21T19:47:52Z</time>
      </trkpt>
      <trkpt lat="59.4917841" lon="17.8694821">
        <ele>35.2255</ele>
        <time>2011-01-21T19:47:57Z</time>
      </trkpt>
      <trkpt lat="59.4918153" lon="17.8694832">
        <ele>35.2255</ele>
        <time>2011-01-21T19:47:58Z</time>
      </trkpt>
      <trkpt lat="59.4920114" lon="17.869381">
        <ele>34.7449</ele>
        <time>2011-01-21T19:48:03Z</time>
      </trkpt>
      <trkpt lat="59.4921295" lon="17.8692677">
        <ele>35.7061</ele>
        <time>2011-01-21T19:48:07Z</time>
      </trkpt>
      <trkpt lat="59.4922052" lon="17.8691334">
        <ele>36.1868</ele>
        <time>2011-01-21T19:48:11Z</time>
      </trkpt>
      <trkpt lat="59.4922328" lon="17.8690511">
        <ele>37.1481</ele>
        <time>2011-01-21T19:48:13Z</time>
      </trkpt>
      <trkpt lat="59.492213" lon="17.8687548">
        <ele>36.6675</ele>
        <time>2011-01-21T19:48:18Z</time>
      </trkpt>
      <trkpt lat="59.4921006" lon="17.8686418">
        <ele>36.1868</ele>
        <time>2011-01-21T19:48:21Z</time>
      </trkpt>
      <trkpt lat="59.4919203" lon="17.8686942">
        <ele>35.7061</ele>
        <time>2011-01-21T19:48:25Z</time>
      </trkpt>
      <trkpt lat="59.4915974" lon="17.868589">
        <ele>32.8223</ele>
        <time>2011-01-21T19:48:31Z</time>
      </trkpt>
      <trkpt lat="59.4914281" lon="17.8683879">
        <ele>31.3801</ele>
        <time>2011-01-21T19:48:34Z</time>
      </trkpt>
      <trkpt lat="59.4910805" lon="17.8678968">
        <ele>28.4962</ele>
        <time>2011-01-21T19:48:40Z</time>
      </trkpt>
      <trkpt lat="59.4907532" lon="17.8676548">
        <ele>28.0155</ele>
        <time>2011-01-21T19:48:45Z</time>
      </trkpt>
      <trkpt lat="59.4906359" lon="17.8676544">
        <ele>27.5349</ele>
        <time>2011-01-21T19:48:47Z</time>
      </trkpt>
      <trkpt lat="59.490519" lon="17.8677131">
        <ele>27.5349</ele>
        <time>2011-01-21T19:48:49Z</time>
      </trkpt>
      <trkpt lat="59.4903305" lon="17.8679116">
        <ele>27.5349</ele>
        <time>2011-01-21T19:48:53Z</time>
      </trkpt>
      <trkpt lat="59.4902475" lon="17.8680244">
        <ele>27.5349</ele>
        <time>2011-01-21T19:48:55Z</time>
      </trkpt>
      <trkpt lat="59.4900389" lon="17.868187">
        <ele>26.0929</ele>
        <time>2011-01-21T19:49:00Z</time>
      </trkpt>
      <trkpt lat="59.4898341" lon="17.8680201">
        <ele>27.0543</ele>
        <time>2011-01-21T19:49:04Z</time>
      </trkpt>
      <trkpt lat="59.4897487" lon="17.8679183">
        <ele>26.5736</ele>
        <time>2011-01-21T19:49:06Z</time>
      </trkpt>
      <trkpt lat="59.4896565" lon="17.867816">
        <ele>26.5736</ele>
        <time>2011-01-21T19:49:08Z</time>
      </trkpt>
      <trkpt lat="59.4895211" lon="17.8677369">
        <ele>26.0929</ele>
        <time>2011-01-21T19:49:11Z</time>
      </trkpt>
      <trkpt lat="59.4892545" lon="17.8677078">
        <ele>23.6896</ele>
        <time>2011-01-21T19:49:16Z</time>
      </trkpt>
      <trkpt lat="59.4892037" lon="17.8677099">
        <ele>22.7283</ele>
        <time>2011-01-21T19:49:17Z</time>
      </trkpt>
      <trkpt lat="59.4889319" lon="17.8678985">
        <ele>21.767</ele>
        <time>2011-01-21T19:49:23Z</time>
      </trkpt>
      <trkpt lat="59.4887215" lon="17.8679232">
        <ele>19.8444</ele>
        <time>2011-01-21T19:49:27Z</time>
      </trkpt>
      <trkpt lat="59.4884992" lon="17.867772">
        <ele>18.8831</ele>
        <time>2011-01-21T19:49:31Z</time>
      </trkpt>
      <trkpt lat="59.4883355" lon="17.8677089">
        <ele>18.4023</ele>
        <time>2011-01-21T19:49:34Z</time>
      </trkpt>
      <trkpt lat="59.4881347" lon="17.8676892">
        <ele>17.9218</ele>
        <time>2011-01-21T19:49:38Z</time>
      </trkpt>
      <trkpt lat="59.4880445" lon="17.8676886">
        <ele>17.4412</ele>
        <time>2011-01-21T19:49:40Z</time>
      </trkpt>
      <trkpt lat="59.4879007" lon="17.8678042">
        <ele>18.4023</ele>
        <time>2011-01-21T19:49:44Z</time>
      </trkpt>
      <trkpt lat="59.4878401" lon="17.8679058">
        <ele>18.4023</ele>
        <time>2011-01-21T19:49:46Z</time>
      </trkpt>
      <trkpt lat="59.4877071" lon="17.868034">
        <ele>19.3638</ele>
        <time>2011-01-21T19:49:50Z</time>
      </trkpt>
      <trkpt lat="59.4875663" lon="17.8682336">
        <ele>18.8831</ele>
        <time>2011-01-21T19:49:54Z</time>
      </trkpt>
      <trkpt lat="59.4875386" lon="17.8685512">
        <ele>18.4023</ele>
        <time>2011-01-21T19:49:58Z</time>
      </trkpt>
      <trkpt lat="59.4875239" lon="17.8688854">
        <ele>17.9218</ele>
        <time>2011-01-21T19:50:02Z</time>
      </trkpt>
      <trkpt lat="59.4874884" lon="17.8694235">
        <ele>17.4412</ele>
        <time>2011-01-21T19:50:08Z</time>
      </trkpt>
      <trkpt lat="59.4874693" lon="17.8696551">
        <ele>16.9604</ele>
        <time>2011-01-21T19:50:11Z</time>
      </trkpt>
      <trkpt lat="59.4874651" lon="17.8697897">
        <ele>17.4412</ele>
        <time>2011-01-21T19:50:13Z</time>
      </trkpt>
      <trkpt lat="59.4874003" lon="17.8702548">
        <ele>17.9218</ele>
        <time>2011-01-21T19:50:19Z</time>
      </trkpt>
      <trkpt lat="59.4873682" lon="17.8704367">
        <ele>17.9218</ele>
        <time>2011-01-21T19:50:21Z</time>
      </trkpt>
      <trkpt lat="59.4873311" lon="17.8707204">
        <ele>18.4023</ele>
        <time>2011-01-21T19:50:24Z</time>
      </trkpt>
      <trkpt lat="59.4874069" lon="17.8709181">
        <ele>17.9218</ele>
        <time>2011-01-21T19:50:28Z</time>
      </trkpt>
      <trkpt lat="59.4875216" lon="17.870872">
        <ele>18.4023</ele>
        <time>2011-01-21T19:50:30Z</time>
      </trkpt>
      <trkpt lat="59.4876854" lon="17.8707697">
        <ele>18.4023</ele>
        <time>2011-01-21T19:50:33Z</time>
      </trkpt>
      <trkpt lat="59.4878976" lon="17.8709019">
        <ele>17.9218</ele>
        <time>2011-01-21T19:50:38Z</time>
      </trkpt>
      <trkpt lat="59.4879547" lon="17.871109">
        <ele>16.9604</ele>
        <time>2011-01-21T19:50:40Z</time>
      </trkpt>
      <trkpt lat="59.4880451" lon="17.8717333">
        <ele>14.0764</ele>
        <time>2011-01-21T19:50:46Z</time>
      </trkpt>
      <trkpt lat="59.4880905" lon="17.8720478">
        <ele>12.6344</ele>
        <time>2011-01-21T19:50:49Z</time>
      </trkpt>
      <trkpt lat="59.4882262" lon="17.872744">
        <ele>10.2312</ele>
        <time>2011-01-21T19:50:55Z</time>
      </trkpt>
      <trkpt lat="59.4882914" lon="17.8734168">
        <ele>10.2312</ele>
        <time>2011-01-21T19:51:00Z</time>
      </trkpt>
      <trkpt lat="59.4883614" lon="17.8736458">
        <ele>10.2312</ele>
        <time>2011-01-21T19:51:03Z</time>
      </trkpt>
      <trkpt lat="59.4884635" lon="17.87371">
        <ele>9.75061</ele>
        <time>2011-01-21T19:51:05Z</time>
      </trkpt>
      <trkpt lat="59.4887871" lon="17.8738556">
        <ele>10.2312</ele>
        <time>2011-01-21T19:51:11Z</time>
      </trkpt>
      <trkpt lat="59.4889875" lon="17.8739953">
        <ele>9.75061</ele>
        <time>2011-01-21T19:51:15Z</time>
      </trkpt>
      <trkpt lat="59.4890899" lon="17.8744244">
        <ele>8.78918</ele>
        <time>2011-01-21T19:51:19Z</time>
      </trkpt>
      <trkpt lat="59.4891008" lon="17.8745601">
        <ele>8.78918</ele>
        <time>2011-01-21T19:51:20Z</time>
      </trkpt>
      <trkpt lat="59.4891167" lon="17.8753211">
        <ele>6.86646</ele>
        <time>2011-01-21T19:51:26Z</time>
      </trkpt>
      <trkpt lat="59.4891155" lon="17.8754563">
        <ele>7.34717</ele>
        <time>2011-01-21T19:51:27Z</time>
      </trkpt>
      <trkpt lat="59.4891039" lon="17.8759433">
        <ele>5.42456</ele>
        <time>2011-01-21T19:51:31Z</time>
      </trkpt>
      <trkpt lat="59.4890396" lon="17.8763387">
        <ele>3.98267</ele>
        <time>2011-01-21T19:51:35Z</time>
      </trkpt>
      <trkpt lat="59.4889411" lon="17.8765585">
        <ele>1.57935</ele>
        <time>2011-01-21T19:51:38Z</time>
      </trkpt>
      <trkpt lat="59.4888686" lon="17.8766689">
        <ele>1.57935</ele>
        <time>2011-01-21T19:51:40Z</time>
      </trkpt>
      <trkpt lat="59.4887855" lon="17.8767679">
        <ele>0.137451</ele>
        <time>2011-01-21T19:51:42Z</time>
      </trkpt>
      <trkpt lat="59.4885805" lon="17.8768409">
        <ele>0.137451</ele>
        <time>2011-01-21T19:51:46Z</time>
      </trkpt>
      <trkpt lat="59.4884377" lon="17.8767752">
        <ele>0</ele>
        <time>2011-01-21T19:51:49Z</time>
      </trkpt>
      <trkpt lat="59.4882474" lon="17.8765646">
        <ele>1.09863</ele>
        <time>2011-01-21T19:51:54Z</time>
      </trkpt>
      <trkpt lat="59.4881724" lon="17.8764042">
        <ele>2.06006</ele>
        <time>2011-01-21T19:51:57Z</time>
      </trkpt>
      <trkpt lat="59.4880085" lon="17.8760295">
        <ele>5.42456</ele>
        <time>2011-01-21T19:52:04Z</time>
      </trkpt>
      <trkpt lat="59.4879019" lon="17.8758245">
        <ele>7.34717</ele>
        <time>2011-01-21T19:52:08Z</time>
      </trkpt>
      <trkpt lat="59.4877631" lon="17.8756292">
        <ele>8.30859</ele>
        <time>2011-01-21T19:52:12Z</time>
      </trkpt>
      <trkpt lat="59.4876412" lon="17.8754426">
        <ele>9.2699</ele>
        <time>2011-01-21T19:52:16Z</time>
      </trkpt>
      <trkpt lat="59.4875104" lon="17.8752364">
        <ele>9.75061</ele>
        <time>2011-01-21T19:52:21Z</time>
      </trkpt>
      <trkpt lat="59.4873845" lon="17.8750754">
        <ele>9.75061</ele>
        <time>2011-01-21T19:52:25Z</time>
      </trkpt>
      <trkpt lat="59.4872514" lon="17.8749621">
        <ele>10.2312</ele>
        <time>2011-01-21T19:52:29Z</time>
      </trkpt>
      <trkpt lat="59.4870794" lon="17.8748476">
        <ele>9.75061</ele>
        <time>2011-01-21T19:52:34Z</time>
      </trkpt>
      <trkpt lat="59.4868778" lon="17.87483">
        <ele>8.78918</ele>
        <time>2011-01-21T19:52:39Z</time>
      </trkpt>
      <trkpt lat="59.4867275" lon="17.8749169">
        <ele>8.78918</ele>
        <time>2011-01-21T19:52:44Z</time>
      </trkpt>
      <trkpt lat="59.4866179" lon="17.8750154">
        <ele>9.2699</ele>
        <time>2011-01-21T19:52:48Z</time>
      </trkpt>
      <trkpt lat="59.4865242" lon="17.875088">
        <ele>9.2699</ele>
        <time>2011-01-21T19:52:52Z</time>
      </trkpt>
      <trkpt lat="59.4863926" lon="17.87509">
        <ele>9.2699</ele>
        <time>2011-01-21T19:52:55Z</time>
      </trkpt>
      <trkpt lat="59.4862178" lon="17.8750197">
        <ele>9.2699</ele>
        <time>2011-01-21T19:52:59Z</time>
      </trkpt>
      <trkpt lat="59.4860756" lon="17.8749635">
        <ele>10.7118</ele>
        <time>2011-01-21T19:53:03Z</time>
      </trkpt>
      <trkpt lat="59.4858968" lon="17.8749859">
        <ele>11.1925</ele>
        <time>2011-01-21T19:53:08Z</time>
      </trkpt>
      <trkpt lat="59.4857251" lon="17.8751521">
        <ele>11.6732</ele>
        <time>2011-01-21T19:53:13Z</time>
      </trkpt>
      <trkpt lat="59.4856139" lon="17.8753644">
        <ele>11.1925</ele>
        <time>2011-01-21T19:53:17Z</time>
      </trkpt>
      <trkpt lat="59.4854998" lon="17.8756809">
        <ele>11.1925</ele>
        <time>2011-01-21T19:53:22Z</time>
      </trkpt>
      <trkpt lat="59.4854103" lon="17.8759147">
        <ele>10.2312</ele>
        <time>2011-01-21T19:53:26Z</time>
      </trkpt>
      <trkpt lat="59.4853107" lon="17.8762266">
        <ele>11.1925</ele>
        <time>2011-01-21T19:53:31Z</time>
      </trkpt>
      <trkpt lat="59.4852762" lon="17.8765098">
        <ele>11.1925</ele>
        <time>2011-01-21T19:53:35Z</time>
      </trkpt>
      <trkpt lat="59.4852858" lon="17.8765762">
        <ele>11.6732</ele>
        <time>2011-01-21T19:53:36Z</time>
      </trkpt>
      <trkpt lat="59.4854058" lon="17.8767216">
        <ele>10.7118</ele>
        <time>2011-01-21T19:53:41Z</time>
      </trkpt>
      <trkpt lat="59.4855446" lon="17.8767575">
        <ele>10.7118</ele>
        <time>2011-01-21T19:53:45Z</time>
      </trkpt>
      <trkpt lat="59.485615" lon="17.8768058">
        <ele>11.1925</ele>
        <time>2011-01-21T19:53:47Z</time>
      </trkpt>
      <trkpt lat="59.4857905" lon="17.8769974">
        <ele>13.1151</ele>
        <time>2011-01-21T19:53:52Z</time>
      </trkpt>
      <trkpt lat="59.4859277" lon="17.8771516">
        <ele>15.5184</ele>
        <time>2011-01-21T19:53:56Z</time>
      </trkpt>
      <trkpt lat="59.4860905" lon="17.8773341">
        <ele>16.9604</ele>
        <time>2011-01-21T19:54:01Z</time>
      </trkpt>
      <trkpt lat="59.4862807" lon="17.8775136">
        <ele>16.4797</ele>
        <time>2011-01-21T19:54:06Z</time>
      </trkpt>
      <trkpt lat="59.4863246" lon="17.8775521">
        <ele>16.4797</ele>
        <time>2011-01-21T19:54:07Z</time>
      </trkpt>
      <trkpt lat="59.4864786" lon="17.8776837">
        <ele>15.999</ele>
        <time>2011-01-21T19:54:11Z</time>
      </trkpt>
      <trkpt lat="59.4866416" lon="17.8778115">
        <ele>16.4797</ele>
        <time>2011-01-21T19:54:15Z</time>
      </trkpt>
      <trkpt lat="59.4868016" lon="17.877953">
        <ele>16.4797</ele>
        <time>2011-01-21T19:54:19Z</time>
      </trkpt>
      <trkpt lat="59.4869768" lon="17.8781684">
        <ele>15.999</ele>
        <time>2011-01-21T19:54:25Z</time>
      </trkpt>
      <trkpt lat="59.4871185" lon="17.8781521">
        <ele>14.557</ele>
        <time>2011-01-21T19:54:29Z</time>
      </trkpt>
      <trkpt lat="59.4872734" lon="17.877993">
        <ele>13.5958</ele>
        <time>2011-01-21T19:54:33Z</time>
      </trkpt>
      <trkpt lat="59.4873494" lon="17.8778925">
        <ele>13.1151</ele>
        <time>2011-01-21T19:54:35Z</time>
      </trkpt>
      <trkpt lat="59.487443" lon="17.8778213">
        <ele>13.1151</ele>
        <time>2011-01-21T19:54:37Z</time>
      </trkpt>
      <trkpt lat="59.4876099" lon="17.8777309">
        <ele>12.6344</ele>
        <time>2011-01-21T19:54:40Z</time>
      </trkpt>
      <trkpt lat="59.487841" lon="17.8774314">
        <ele>11.6732</ele>
        <time>2011-01-21T19:54:45Z</time>
      </trkpt>
      <trkpt lat="59.4879619" lon="17.8772056">
        <ele>9.2699</ele>
        <time>2011-01-21T19:54:49Z</time>
      </trkpt>
      <trkpt lat="59.4880547" lon="17.8769077">
        <ele>8.78918</ele>
        <time>2011-01-21T19:54:53Z</time>
      </trkpt>
      <trkpt lat="59.488101" lon="17.8767798">
        <ele>9.2699</ele>
        <time>2011-01-21T19:54:55Z</time>
      </trkpt>
      <trkpt lat="59.4882585" lon="17.8766328">
        <ele>9.2699</ele>
        <time>2011-01-21T19:55:00Z</time>
      </trkpt>
      <trkpt lat="59.4883638" lon="17.8766664">
        <ele>10.2312</ele>
        <time>2011-01-21T19:55:03Z</time>
      </trkpt>
      <trkpt lat="59.4885956" lon="17.8767512">
        <ele>12.1538</ele>
        <time>2011-01-21T19:55:09Z</time>
      </trkpt>
      <trkpt lat="59.4887904" lon="17.8766477">
        <ele>12.6344</ele>
        <time>2011-01-21T19:55:14Z</time>
      </trkpt>
      <trkpt lat="59.4888664" lon="17.8765889">
        <ele>13.1151</ele>
        <time>2011-01-21T19:55:16Z</time>
      </trkpt>
      <trkpt lat="59.4890777" lon="17.8764628">
        <ele>11.6732</ele>
        <time>2011-01-21T19:55:22Z</time>
      </trkpt>
      <trkpt lat="59.4891218" lon="17.8764913">
        <ele>11.6732</ele>
        <time>2011-01-21T19:55:23Z</time>
      </trkpt>
      <trkpt lat="59.4892188" lon="17.8765547">
        <ele>12.1538</ele>
        <time>2011-01-21T19:55:25Z</time>
      </trkpt>
      <trkpt lat="59.4893885" lon="17.8767159">
        <ele>11.1925</ele>
        <time>2011-01-21T19:55:29Z</time>
      </trkpt>
      <trkpt lat="59.4894819" lon="17.8768497">
        <ele>9.75061</ele>
        <time>2011-01-21T19:55:32Z</time>
      </trkpt>
      <trkpt lat="59.4895851" lon="17.8769254">
        <ele>9.75061</ele>
        <time>2011-01-21T19:55:35Z</time>
      </trkpt>
      <trkpt lat="59.4897029" lon="17.8769849">
        <ele>11.1925</ele>
        <time>2011-01-21T19:55:38Z</time>
      </trkpt>
      <trkpt lat="59.4899541" lon="17.8770288">
        <ele>14.0764</ele>
        <time>2011-01-21T19:55:44Z</time>
      </trkpt>
      <trkpt lat="59.4901298" lon="17.8769964">
        <ele>15.0377</ele>
        <time>2011-01-21T19:55:48Z</time>
      </trkpt>
      <trkpt lat="59.49028" lon="17.8767932">
        <ele>13.5958</ele>
        <time>2011-01-21T19:55:53Z</time>
      </trkpt>
      <trkpt lat="59.4903755" lon="17.8764667">
        <ele>10.7118</ele>
        <time>2011-01-21T19:55:58Z</time>
      </trkpt>
      <trkpt lat="59.490434" lon="17.8763669">
        <ele>9.75061</ele>
        <time>2011-01-21T19:56:00Z</time>
      </trkpt>
      <trkpt lat="59.4906771" lon="17.876383">
        <ele>6.38586</ele>
        <time>2011-01-21T19:56:05Z</time>
      </trkpt>
      <trkpt lat="59.4908219" lon="17.8764705">
        <ele>5.90527</ele>
        <time>2011-01-21T19:56:08Z</time>
      </trkpt>
      <trkpt lat="59.4909799" lon="17.8765887">
        <ele>6.38586</ele>
        <time>2011-01-21T19:56:12Z</time>
      </trkpt>
      <trkpt lat="59.4912179" lon="17.8768223">
        <ele>7.34717</ele>
        <time>2011-01-21T19:56:17Z</time>
      </trkpt>
      <trkpt lat="59.4913869" lon="17.8769367">
        <ele>7.82788</ele>
        <time>2011-01-21T19:56:20Z</time>
      </trkpt>
      <trkpt lat="59.4915502" lon="17.8770123">
        <ele>8.30859</ele>
        <time>2011-01-21T19:56:23Z</time>
      </trkpt>
      <trkpt lat="59.4916527" lon="17.8770332">
        <ele>8.30859</ele>
        <time>2011-01-21T19:56:25Z</time>
      </trkpt>
      <trkpt lat="59.491877" lon="17.8770106">
        <ele>7.82788</ele>
        <time>2011-01-21T19:56:30Z</time>
      </trkpt>
      <trkpt lat="59.4920864" lon="17.8770682">
        <ele>8.78918</ele>
        <time>2011-01-21T19:56:35Z</time>
      </trkpt>
      <trkpt lat="59.4922116" lon="17.8771014">
        <ele>8.78918</ele>
        <time>2011-01-21T19:56:38Z</time>
      </trkpt>
      <trkpt lat="59.4924299" lon="17.8772231">
        <ele>9.2699</ele>
        <time>2011-01-21T19:56:43Z</time>
      </trkpt>
      <trkpt lat="59.4927133" lon="17.8773791">
        <ele>10.2312</ele>
        <time>2011-01-21T19:56:49Z</time>
      </trkpt>
      <trkpt lat="59.493" lon="17.8775298">
        <ele>11.1925</ele>
        <time>2011-01-21T19:56:55Z</time>
      </trkpt>
      <trkpt lat="59.4930477" lon="17.8775563">
        <ele>11.1925</ele>
        <time>2011-01-21T19:56:56Z</time>
      </trkpt>
      <trkpt lat="59.4932033" lon="17.877626">
        <ele>10.7118</ele>
        <time>2011-01-21T19:56:59Z</time>
      </trkpt>
      <trkpt lat="59.49347" lon="17.8777624">
        <ele>8.30859</ele>
        <time>2011-01-21T19:57:04Z</time>
      </trkpt>
      <trkpt lat="59.4938003" lon="17.8779956">
        <ele>1.09863</ele>
        <time>2011-01-21T19:57:10Z</time>
      </trkpt>
      <trkpt lat="59.4940607" lon="17.8780058">
        <ele>0</ele>
        <time>2011-01-21T19:57:15Z</time>
      </trkpt>
      <trkpt lat="59.4941887" lon="17.8778617">
        <ele>0</ele>
        <time>2011-01-21T19:57:18Z</time>
      </trkpt>
      <trkpt lat="59.4943237" lon="17.8776486">
        <ele>0</ele>
        <time>2011-01-21T19:57:22Z</time>
      </trkpt>
      <trkpt lat="59.4944222" lon="17.8775433">
        <ele>0.137451</ele>
        <time>2011-01-21T19:57:25Z</time>
      </trkpt>
      <trkpt lat="59.4945455" lon="17.8774573">
        <ele>0.618042</ele>
        <time>2011-01-21T19:57:28Z</time>
      </trkpt>
      <trkpt lat="59.4947299" lon="17.8774656">
        <ele>1.57935</ele>
        <time>2011-01-21T19:57:32Z</time>
      </trkpt>
      <trkpt lat="59.4948704" lon="17.8774594">
        <ele>2.06006</ele>
        <time>2011-01-21T19:57:35Z</time>
      </trkpt>
      <trkpt lat="59.4950002" lon="17.8774514">
        <ele>3.02124</ele>
        <time>2011-01-21T19:57:38Z</time>
      </trkpt>
      <trkpt lat="59.495126" lon="17.8774535">
        <ele>3.50195</ele>
        <time>2011-01-21T19:57:41Z</time>
      </trkpt>
      <trkpt lat="59.4952291" lon="17.8773998">
        <ele>4.94385</ele>
        <time>2011-01-21T19:57:44Z</time>
      </trkpt>
      <trkpt lat="59.4954204" lon="17.8771588">
        <ele>6.86646</ele>
        <time>2011-01-21T19:57:51Z</time>
      </trkpt>
      <trkpt lat="59.4954604" lon="17.876959">
        <ele>6.38586</ele>
        <time>2011-01-21T19:57:55Z</time>
      </trkpt>
      <trkpt lat="59.4954924" lon="17.8766586">
        <ele>5.90527</ele>
        <time>2011-01-21T19:58:00Z</time>
      </trkpt>
      <trkpt lat="59.495481" lon="17.876443">
        <ele>6.38586</ele>
        <time>2011-01-21T19:58:04Z</time>
      </trkpt>
      <trkpt lat="59.4954308" lon="17.8761664">
        <ele>8.30859</ele>
        <time>2011-01-21T19:58:09Z</time>
      </trkpt>
      <trkpt lat="59.4954228" lon="17.8761333">
        <ele>8.78918</ele>
        <time>2011-01-21T19:58:10Z</time>
      </trkpt>
      <trkpt lat="59.4954038" lon="17.8759986">
        <ele>9.75061</ele>
        <time>2011-01-21T19:58:14Z</time>
      </trkpt>
      <trkpt lat="59.4952832" lon="17.8758213">
        <ele>9.75061</ele>
        <time>2011-01-21T19:58:18Z</time>
      </trkpt>
      <trkpt lat="59.4950645" lon="17.8755505">
        <ele>7.34717</ele>
        <time>2011-01-21T19:58:21Z</time>
      </trkpt>
      <trkpt lat="59.4947703" lon="17.8753531">
        <ele>6.86646</ele>
        <time>2011-01-21T19:58:25Z</time>
      </trkpt>
      <trkpt lat="59.4946478" lon="17.8752973">
        <ele>7.34717</ele>
        <time>2011-01-21T19:58:27Z</time>
      </trkpt>
      <trkpt lat="59.4943802" lon="17.8752952">
        <ele>6.86646</ele>
        <time>2011-01-21T19:58:32Z</time>
      </trkpt>
      <trkpt lat="59.4943365" lon="17.875308">
        <ele>6.38586</ele>
        <time>2011-01-21T19:58:33Z</time>
      </trkpt>
      <trkpt lat="59.4941599" lon="17.8753761">
        <ele>5.90527</ele>
        <time>2011-01-21T19:58:38Z</time>
      </trkpt>
      <trkpt lat="59.49413" lon="17.8753905">
        <ele>5.90527</ele>
        <time>2011-01-21T19:58:39Z</time>
      </trkpt>
      <trkpt lat="59.4939806" lon="17.8755255">
        <ele>5.42456</ele>
        <time>2011-01-21T19:58:44Z</time>
      </trkpt>
      <trkpt lat="59.4938607" lon="17.8756853">
        <ele>5.90527</ele>
        <time>2011-01-21T19:58:48Z</time>
      </trkpt>
      <trkpt lat="59.4937067" lon="17.8759069">
        <ele>4.46326</ele>
        <time>2011-01-21T19:58:53Z</time>
      </trkpt>
      <trkpt lat="59.4936793" lon="17.8759448">
        <ele>4.46326</ele>
        <time>2011-01-21T19:58:54Z</time>
      </trkpt>
      <trkpt lat="59.4935317" lon="17.8761006">
        <ele>2.54065</ele>
        <time>2011-01-21T19:58:59Z</time>
      </trkpt>
      <trkpt lat="59.4934149" lon="17.8762675">
        <ele>0.618042</ele>
        <time>2011-01-21T19:59:03Z</time>
      </trkpt>
      <trkpt lat="59.4932974" lon="17.8763624">
        <ele>0</ele>
        <time>2011-01-21T19:59:07Z</time>
      </trkpt>
      <trkpt lat="59.4931915" lon="17.8763947">
        <ele>0</ele>
        <time>2011-01-21T19:59:11Z</time>
      </trkpt>
      <trkpt lat="59.4930421" lon="17.8763787">
        <ele>0</ele>
        <time>2011-01-21T19:59:16Z</time>
      </trkpt>
      <trkpt lat="59.4929183" lon="17.8763684">
        <ele>0</ele>
        <time>2011-01-21T19:59:20Z</time>
      </trkpt>
      <trkpt lat="59.4927526" lon="17.8764099">
        <ele>1.57935</ele>
        <time>2011-01-21T19:59:25Z</time>
      </trkpt>
      <trkpt lat="59.4926081" lon="17.8764705">
        <ele>4.46326</ele>
        <time>2011-01-21T19:59:29Z</time>
      </trkpt>
      <trkpt lat="59.4924686" lon="17.8765589">
        <ele>5.90527</ele>
        <time>2011-01-21T19:59:33Z</time>
      </trkpt>
      <trkpt lat="59.492317" lon="17.8766894">
        <ele>5.90527</ele>
        <time>2011-01-21T19:59:37Z</time>
      </trkpt>
      <trkpt lat="59.4921091" lon="17.8769137">
        <ele>5.42456</ele>
        <time>2011-01-21T19:59:43Z</time>
      </trkpt>
      <trkpt lat="59.4919092" lon="17.8771126">
        <ele>4.94385</ele>
        <time>2011-01-21T19:59:49Z</time>
      </trkpt>
      <trkpt lat="59.4917731" lon="17.8771241">
        <ele>3.98267</ele>
        <time>2011-01-21T19:59:53Z</time>
      </trkpt>
      <trkpt lat="59.4916306" lon="17.8771051">
        <ele>3.02124</ele>
        <time>2011-01-21T19:59:57Z</time>
      </trkpt>
      <trkpt lat="59.4914766" lon="17.8770599">
        <ele>3.50195</ele>
        <time>2011-01-21T20:00:01Z</time>
      </trkpt>
      <trkpt lat="59.4913427" lon="17.8770204">
        <ele>4.46326</ele>
        <time>2011-01-21T20:00:05Z</time>
      </trkpt>
      <trkpt lat="59.4912188" lon="17.8769314">
        <ele>4.94385</ele>
        <time>2011-01-21T20:00:09Z</time>
      </trkpt>
      <trkpt lat="59.4910883" lon="17.8767969">
        <ele>5.42456</ele>
        <time>2011-01-21T20:00:13Z</time>
      </trkpt>
      <trkpt lat="59.49094" lon="17.87667">
        <ele>5.42456</ele>
        <time>2011-01-21T20:00:18Z</time>
      </trkpt>
      <trkpt lat="59.4908452" lon="17.8765861">
        <ele>5.42456</ele>
        <time>2011-01-21T20:00:22Z</time>
      </trkpt>
      <trkpt lat="59.4906307" lon="17.8764538">
        <ele>4.94385</ele>
        <time>2011-01-21T20:00:27Z</time>
      </trkpt>
      <trkpt lat="59.490381" lon="17.8764047">
        <ele>5.42456</ele>
        <time>2011-01-21T20:00:33Z</time>
      </trkpt>
      <trkpt lat="59.4903031" lon="17.8763882">
        <ele>5.42456</ele>
        <time>2011-01-21T20:00:35Z</time>
      </trkpt>
      <trkpt lat="59.4901337" lon="17.8764229">
        <ele>5.90527</ele>
        <time>2011-01-21T20:00:40Z</time>
      </trkpt>
      <trkpt lat="59.4900066" lon="17.8765208">
        <ele>6.38586</ele>
        <time>2011-01-21T20:00:44Z</time>
      </trkpt>
      <trkpt lat="59.489835" lon="17.8766027">
        <ele>6.38586</ele>
        <time>2011-01-21T20:00:49Z</time>
      </trkpt>
      <trkpt lat="59.4897125" lon="17.8765134">
        <ele>5.42456</ele>
        <time>2011-01-21T20:00:53Z</time>
      </trkpt>
      <trkpt lat="59.4896202" lon="17.8763527">
        <ele>5.42456</ele>
        <time>2011-01-21T20:00:57Z</time>
      </trkpt>
      <trkpt lat="59.4895125" lon="17.8760946">
        <ele>6.38586</ele>
        <time>2011-01-21T20:01:02Z</time>
      </trkpt>
      <trkpt lat="59.4894331" lon="17.8758505">
        <ele>7.34717</ele>
        <time>2011-01-21T20:01:07Z</time>
      </trkpt>
      <trkpt lat="59.4893275" lon="17.875547">
        <ele>7.34717</ele>
        <time>2011-01-21T20:01:12Z</time>
      </trkpt>
      <trkpt lat="59.4892445" lon="17.875301">
        <ele>8.30859</ele>
        <time>2011-01-21T20:01:16Z</time>
      </trkpt>
      <trkpt lat="59.4891711" lon="17.87503">
        <ele>10.2312</ele>
        <time>2011-01-21T20:01:21Z</time>
      </trkpt>
      <trkpt lat="59.4891166" lon="17.8748161">
        <ele>11.6732</ele>
        <time>2011-01-21T20:01:25Z</time>
      </trkpt>
      <trkpt lat="59.4890538" lon="17.8745389">
        <ele>13.1151</ele>
        <time>2011-01-21T20:01:30Z</time>
      </trkpt>
      <trkpt lat="59.4890633" lon="17.8742527">
        <ele>15.5184</ele>
        <time>2011-01-21T20:01:35Z</time>
      </trkpt>
      <trkpt lat="59.4890661" lon="17.874024">
        <ele>16.4797</ele>
        <time>2011-01-21T20:01:39Z</time>
      </trkpt>
      <trkpt lat="59.4890808" lon="17.8737012">
        <ele>17.4412</ele>
        <time>2011-01-21T20:01:45Z</time>
      </trkpt>
      <trkpt lat="59.4891099" lon="17.873446">
        <ele>18.8831</ele>
        <time>2011-01-21T20:01:50Z</time>
      </trkpt>
      <trkpt lat="59.48914" lon="17.8732419">
        <ele>20.325</ele>
        <time>2011-01-21T20:01:54Z</time>
      </trkpt>
      <trkpt lat="59.4891825" lon="17.8730055">
        <ele>21.2864</ele>
        <time>2011-01-21T20:01:59Z</time>
      </trkpt>
      <trkpt lat="59.4892152" lon="17.8727185">
        <ele>21.2864</ele>
        <time>2011-01-21T20:02:05Z</time>
      </trkpt>
      <trkpt lat="59.4892129" lon="17.8725072">
        <ele>21.767</ele>
        <time>2011-01-21T20:02:09Z</time>
      </trkpt>
      <trkpt lat="59.4891736" lon="17.8722943">
        <ele>22.7283</ele>
        <time>2011-01-21T20:02:14Z</time>
      </trkpt>
      <trkpt lat="59.4891393" lon="17.8720367">
        <ele>24.651</ele>
        <time>2011-01-21T20:02:20Z</time>
      </trkpt>
      <trkpt lat="59.4891028" lon="17.8718649">
        <ele>24.651</ele>
        <time>2011-01-21T20:02:24Z</time>
      </trkpt>
      <trkpt lat="59.4890535" lon="17.8716053">
        <ele>24.651</ele>
        <time>2011-01-21T20:02:30Z</time>
      </trkpt>
      <trkpt lat="59.4890176" lon="17.8714089">
        <ele>25.1317</ele>
        <time>2011-01-21T20:02:35Z</time>
      </trkpt>
      <trkpt lat="59.4889742" lon="17.8711757">
        <ele>25.1317</ele>
        <time>2011-01-21T20:02:40Z</time>
      </trkpt>
      <trkpt lat="59.4889369" lon="17.8709837">
        <ele>25.6123</ele>
        <time>2011-01-21T20:02:44Z</time>
      </trkpt>
      <trkpt lat="59.4889074" lon="17.8707956">
        <ele>25.6123</ele>
        <time>2011-01-21T20:02:48Z</time>
      </trkpt>
      <trkpt lat="59.4888945" lon="17.8706045">
        <ele>25.6123</ele>
        <time>2011-01-21T20:02:52Z</time>
      </trkpt>
      <trkpt lat="59.4888991" lon="17.8703378">
        <ele>26.0929</ele>
        <time>2011-01-21T20:02:57Z</time>
      </trkpt>
      <trkpt lat="59.4889152" lon="17.8700581">
        <ele>25.6123</ele>
        <time>2011-01-21T20:03:02Z</time>
      </trkpt>
      <trkpt lat="59.4889525" lon="17.8698457">
        <ele>25.1317</ele>
        <time>2011-01-21T20:03:06Z</time>
      </trkpt>
      <trkpt lat="59.4890072" lon="17.8696846">
        <ele>24.651</ele>
        <time>2011-01-21T20:03:10Z</time>
      </trkpt>
      <trkpt lat="59.4890996" lon="17.8695375">
        <ele>24.651</ele>
        <time>2011-01-21T20:03:14Z</time>
      </trkpt>
      <trkpt lat="59.4891647" lon="17.8694457">
        <ele>24.651</ele>
        <time>2011-01-21T20:03:17Z</time>
      </trkpt>
      <trkpt lat="59.4891913" lon="17.869414">
        <ele>25.1317</ele>
        <time>2011-01-21T20:03:18Z</time>
      </trkpt>
      <trkpt lat="59.4893367" lon="17.8693593">
        <ele>25.1317</ele>
        <time>2011-01-21T20:03:23Z</time>
      </trkpt>
      <trkpt lat="59.4894705" lon="17.8693049">
        <ele>25.6123</ele>
        <time>2011-01-21T20:03:27Z</time>
      </trkpt>
      <trkpt lat="59.4895969" lon="17.8692084">
        <ele>26.5736</ele>
        <time>2011-01-21T20:03:31Z</time>
      </trkpt>
      <trkpt lat="59.4897254" lon="17.8690638">
        <ele>27.0543</ele>
        <time>2011-01-21T20:03:36Z</time>
      </trkpt>
      <trkpt lat="59.4898752" lon="17.8689278">
        <ele>27.5349</ele>
        <time>2011-01-21T20:03:42Z</time>
      </trkpt>
      <trkpt lat="59.4898951" lon="17.868905">
        <ele>27.5349</ele>
        <time>2011-01-21T20:03:43Z</time>
      </trkpt>
      <trkpt lat="59.4899885" lon="17.8688144">
        <ele>27.5349</ele>
        <time>2011-01-21T20:03:47Z</time>
      </trkpt>
      <trkpt lat="59.4901108" lon="17.8687176">
        <ele>27.0543</ele>
        <time>2011-01-21T20:03:52Z</time>
      </trkpt>
      <trkpt lat="59.4902225" lon="17.8686896">
        <ele>28.0155</ele>
        <time>2011-01-21T20:03:56Z</time>
      </trkpt>
      <trkpt lat="59.4903461" lon="17.8687148">
        <ele>29.9381</ele>
        <time>2011-01-21T20:04:00Z</time>
      </trkpt>
      <trkpt lat="59.4904983" lon="17.8687287">
        <ele>30.8995</ele>
        <time>2011-01-21T20:04:05Z</time>
      </trkpt>
      <trkpt lat="59.4906332" lon="17.8687361">
        <ele>32.8223</ele>
        <time>2011-01-21T20:04:10Z</time>
      </trkpt>
      <trkpt lat="59.4907602" lon="17.8687532">
        <ele>33.7834</ele>
        <time>2011-01-21T20:04:15Z</time>
      </trkpt>
      <trkpt lat="59.4908786" lon="17.8687771">
        <ele>34.2642</ele>
        <time>2011-01-21T20:04:20Z</time>
      </trkpt>
      <trkpt lat="59.4910169" lon="17.8688375">
        <ele>33.7834</ele>
        <time>2011-01-21T20:04:26Z</time>
      </trkpt>
      <trkpt lat="59.4911726" lon="17.8689293">
        <ele>33.7834</ele>
        <time>2011-01-21T20:04:31Z</time>
      </trkpt>
      <trkpt lat="59.4913141" lon="17.8690586">
        <ele>34.7449</ele>
        <time>2011-01-21T20:04:36Z</time>
      </trkpt>
      <trkpt lat="59.4914473" lon="17.869223">
        <ele>35.7061</ele>
        <time>2011-01-21T20:04:42Z</time>
      </trkpt>
      <trkpt lat="59.4915157" lon="17.8692904">
        <ele>37.6287</ele>
        <time>2011-01-21T20:04:46Z</time>
      </trkpt>
      <trkpt lat="59.4916192" lon="17.8693975">
        <ele>37.1481</ele>
        <time>2011-01-21T20:04:52Z</time>
      </trkpt>
      <trkpt lat="59.4917636" lon="17.8695084">
        <ele>39.0707</ele>
        <time>2011-01-21T20:04:58Z</time>
      </trkpt>
      <trkpt lat="59.4918884" lon="17.8695629">
        <ele>40.5128</ele>
        <time>2011-01-21T20:05:02Z</time>
      </trkpt>
      <trkpt lat="59.4921059" lon="17.8694717">
        <ele>40.9934</ele>
        <time>2011-01-21T20:05:08Z</time>
      </trkpt>
      <trkpt lat="59.4922453" lon="17.8692956">
        <ele>40.5128</ele>
        <time>2011-01-21T20:05:13Z</time>
      </trkpt>
      <trkpt lat="59.4922863" lon="17.8691662">
        <ele>39.5513</ele>
        <time>2011-01-21T20:05:16Z</time>
      </trkpt>
      <trkpt lat="59.4922536" lon="17.8687562">
        <ele>38.1094</ele>
        <time>2011-01-21T20:05:22Z</time>
      </trkpt>
      <trkpt lat="59.4922639" lon="17.8687045">
        <ele>38.5901</ele>
        <time>2011-01-21T20:05:25Z</time>
      </trkpt>
      <trkpt lat="59.4922636" lon="17.8686815">
        <ele>39.5513</ele>
        <time>2011-01-21T20:05:27Z</time>
      </trkpt>
      <trkpt lat="59.4921559" lon="17.8686466">
        <ele>40.0321</ele>
        <time>2011-01-21T20:05:32Z</time>
      </trkpt>
      <trkpt lat="59.4920615" lon="17.8686639">
        <ele>39.0707</ele>
        <time>2011-01-21T20:05:35Z</time>
      </trkpt>
      <trkpt lat="59.4918257" lon="17.8686905">
        <ele>38.1094</ele>
        <time>2011-01-21T20:05:42Z</time>
      </trkpt>
      <trkpt lat="59.4916384" lon="17.8685424">
        <ele>37.1481</ele>
        <time>2011-01-21T20:05:46Z</time>
      </trkpt>
      <trkpt lat="59.4915366" lon="17.8684243">
        <ele>36.1868</ele>
        <time>2011-01-21T20:05:48Z</time>
      </trkpt>
      <trkpt lat="59.4911997" lon="17.8680248">
        <ele>33.7834</ele>
        <time>2011-01-21T20:05:54Z</time>
      </trkpt>
      <trkpt lat="59.4910866" lon="17.8678488">
        <ele>32.8223</ele>
        <time>2011-01-21T20:05:56Z</time>
      </trkpt>
      <trkpt lat="59.4907681" lon="17.8676269">
        <ele>31.3801</ele>
        <time>2011-01-21T20:06:01Z</time>
      </trkpt>
      <trkpt lat="59.490588" lon="17.8676462">
        <ele>30.4188</ele>
        <time>2011-01-21T20:06:04Z</time>
      </trkpt>
      <trkpt lat="59.4903143" lon="17.8679104">
        <ele>28.0155</ele>
        <time>2011-01-21T20:06:10Z</time>
      </trkpt>
      <trkpt lat="59.4901836" lon="17.8680599">
        <ele>26.5736</ele>
        <time>2011-01-21T20:06:13Z</time>
      </trkpt>
      <trkpt lat="59.4899521" lon="17.8681414">
        <ele>24.1703</ele>
        <time>2011-01-21T20:06:18Z</time>
      </trkpt>
      <trkpt lat="59.4897145" lon="17.8678849">
        <ele>22.2476</ele>
        <time>2011-01-21T20:06:24Z</time>
      </trkpt>
      <trkpt lat="59.4896801" lon="17.8678457">
        <ele>21.767</ele>
        <time>2011-01-21T20:06:25Z</time>
      </trkpt>
      <trkpt lat="59.4896091" lon="17.8677584">
        <ele>20.8057</ele>
        <time>2011-01-21T20:06:27Z</time>
      </trkpt>
      <trkpt lat="59.4894968" lon="17.8676907">
        <ele>20.325</ele>
        <time>2011-01-21T20:06:30Z</time>
      </trkpt>
      <trkpt lat="59.489208" lon="17.8676856">
        <ele>19.8444</ele>
        <time>2011-01-21T20:06:36Z</time>
      </trkpt>
      <trkpt lat="59.4891523" lon="17.8676882">
        <ele>19.3638</ele>
        <time>2011-01-21T20:06:37Z</time>
      </trkpt>
      <trkpt lat="59.4889385" lon="17.8678306">
        <ele>18.4023</ele>
        <time>2011-01-21T20:06:42Z</time>
      </trkpt>
      <trkpt lat="59.4889002" lon="17.8678758">
        <ele>18.4023</ele>
        <time>2011-01-21T20:06:43Z</time>
      </trkpt>
      <trkpt lat="59.4886588" lon="17.8678838">
        <ele>17.9218</ele>
        <time>2011-01-21T20:06:48Z</time>
      </trkpt>
      <trkpt lat="59.4885216" lon="17.8677549">
        <ele>17.4412</ele>
        <time>2011-01-21T20:06:51Z</time>
      </trkpt>
      <trkpt lat="59.4884728" lon="17.8677286">
        <ele>17.9218</ele>
        <time>2011-01-21T20:06:52Z</time>
      </trkpt>
      <trkpt lat="59.488235" lon="17.867651">
        <ele>16.9604</ele>
        <time>2011-01-21T20:06:57Z</time>
      </trkpt>
      <trkpt lat="59.4881031" lon="17.8676587">
        <ele>17.4412</ele>
        <time>2011-01-21T20:07:00Z</time>
      </trkpt>
      <trkpt lat="59.487967" lon="17.8677183">
        <ele>17.4412</ele>
        <time>2011-01-21T20:07:03Z</time>
      </trkpt>
      <trkpt lat="59.4878621" lon="17.867855">
        <ele>17.4412</ele>
        <time>2011-01-21T20:07:06Z</time>
      </trkpt>
      <trkpt lat="59.4877459" lon="17.8679819">
        <ele>16.9604</ele>
        <time>2011-01-21T20:07:09Z</time>
      </trkpt>
      <trkpt lat="59.487619" lon="17.868078">
        <ele>16.4797</ele>
        <time>2011-01-21T20:07:12Z</time>
      </trkpt>
      <trkpt lat="59.4874952" lon="17.8684164">
        <ele>15.0377</ele>
        <time>2011-01-21T20:07:17Z</time>
      </trkpt>
      <trkpt lat="59.4874891" lon="17.868508">
        <ele>14.557</ele>
        <time>2011-01-21T20:07:18Z</time>
      </trkpt>
      <trkpt lat="59.487484" lon="17.8687738">
        <ele>15.0377</ele>
        <time>2011-01-21T20:07:21Z</time>
      </trkpt>
      <trkpt lat="59.487473" lon="17.8690184">
        <ele>15.5184</ele>
        <time>2011-01-21T20:07:24Z</time>
      </trkpt>
      <trkpt lat="59.4874635" lon="17.869194">
        <ele>15.999</ele>
        <time>2011-01-21T20:07:26Z</time>
      </trkpt>
      <trkpt lat="59.4874263" lon="17.8695053">
        <ele>15.999</ele>
        <time>2011-01-21T20:07:30Z</time>
      </trkpt>
      <trkpt lat="59.4873468" lon="17.8700135">
        <ele>17.9218</ele>
        <time>2011-01-21T20:07:38Z</time>
      </trkpt>
      <trkpt lat="59.4873166" lon="17.8702741">
        <ele>17.9218</ele>
        <time>2011-01-21T20:07:41Z</time>
      </trkpt>
      <trkpt lat="59.4873063" lon="17.8703676">
        <ele>17.9218</ele>
        <time>2011-01-21T20:07:42Z</time>
      </trkpt>
      <trkpt lat="59.4872901" lon="17.87047">
        <ele>18.4023</ele>
        <time>2011-01-21T20:07:43Z</time>
      </trkpt>
      <trkpt lat="59.4872962" lon="17.8708293">
        <ele>18.4023</ele>
        <time>2011-01-21T20:07:47Z</time>
      </trkpt>
      <trkpt lat="59.487428" lon="17.8709153">
        <ele>16.9604</ele>
        <time>2011-01-21T20:07:50Z</time>
      </trkpt>
      <trkpt lat="59.4875372" lon="17.8708569">
        <ele>16.4797</ele>
        <time>2011-01-21T20:07:52Z</time>
      </trkpt>
      <trkpt lat="59.4878324" lon="17.8708641">
        <ele>16.9604</ele>
        <time>2011-01-21T20:07:58Z</time>
      </trkpt>
      <trkpt lat="59.4879226" lon="17.8711324">
        <ele>16.9604</ele>
        <time>2011-01-21T20:08:01Z</time>
      </trkpt>
      <trkpt lat="59.4880107" lon="17.8715411">
        <ele>16.9604</ele>
        <time>2011-01-21T20:08:05Z</time>
      </trkpt>
      <trkpt lat="59.4880527" lon="17.8718271">
        <ele>15.999</ele>
        <time>2011-01-21T20:08:08Z</time>
      </trkpt>
      <trkpt lat="59.4881716" lon="17.8724725">
        <ele>13.1151</ele>
        <time>2011-01-21T20:08:14Z</time>
      </trkpt>
      <trkpt lat="59.4882388" lon="17.8729535">
        <ele>10.2312</ele>
        <time>2011-01-21T20:08:18Z</time>
      </trkpt>
      <trkpt lat="59.4882589" lon="17.8733335">
        <ele>10.2312</ele>
        <time>2011-01-21T20:08:21Z</time>
      </trkpt>
      <trkpt lat="59.4883651" lon="17.8736586">
        <ele>10.7118</ele>
        <time>2011-01-21T20:08:25Z</time>
      </trkpt>
      <trkpt lat="59.4884652" lon="17.8737181">
        <ele>11.1925</ele>
        <time>2011-01-21T20:08:27Z</time>
      </trkpt>
      <trkpt lat="59.4886291" lon="17.8737752">
        <ele>11.6732</ele>
        <time>2011-01-21T20:08:30Z</time>
      </trkpt>
      <trkpt lat="59.4888647" lon="17.8739508">
        <ele>11.1925</ele>
        <time>2011-01-21T20:08:35Z</time>
      </trkpt>
      <trkpt lat="59.4890132" lon="17.8741199">
        <ele>11.6732</ele>
        <time>2011-01-21T20:08:38Z</time>
      </trkpt>
      <trkpt lat="59.4891114" lon="17.8745171">
        <ele>9.2699</ele>
        <time>2011-01-21T20:08:42Z</time>
      </trkpt>
      <trkpt lat="59.4891571" lon="17.8749152">
        <ele>8.30859</ele>
        <time>2011-01-21T20:08:45Z</time>
      </trkpt>
      <trkpt lat="59.4891322" lon="17.8756987">
        <ele>6.38586</ele>
        <time>2011-01-21T20:08:51Z</time>
      </trkpt>
      <trkpt lat="59.4891188" lon="17.8759324">
        <ele>4.94385</ele>
        <time>2011-01-21T20:08:53Z</time>
      </trkpt>
      <trkpt lat="59.4890343" lon="17.876355">
        <ele>4.46326</ele>
        <time>2011-01-21T20:08:57Z</time>
      </trkpt>
      <trkpt lat="59.4888827" lon="17.876628">
        <ele>3.50195</ele>
        <time>2011-01-21T20:09:01Z</time>
      </trkpt>
      <trkpt lat="59.4888396" lon="17.8766777">
        <ele>3.50195</ele>
        <time>2011-01-21T20:09:02Z</time>
      </trkpt>
      <trkpt lat="59.488755" lon="17.8767632">
        <ele>2.54065</ele>
        <time>2011-01-21T20:09:04Z</time>
      </trkpt>
      <trkpt lat="59.4886795" lon="17.8768073">
        <ele>2.54065</ele>
        <time>2011-01-21T20:09:06Z</time>
      </trkpt>
      <trkpt lat="59.488591" lon="17.8768233">
        <ele>2.06006</ele>
        <time>2011-01-21T20:09:08Z</time>
      </trkpt>
      <trkpt lat="59.4884947" lon="17.8768191">
        <ele>2.06006</ele>
        <time>2011-01-21T20:09:10Z</time>
      </trkpt>
      <trkpt lat="59.4883304" lon="17.8766902">
        <ele>2.54065</ele>
        <time>2011-01-21T20:09:14Z</time>
      </trkpt>
      <trkpt lat="59.4882341" lon="17.876542">
        <ele>2.54065</ele>
        <time>2011-01-21T20:09:17Z</time>
      </trkpt>
      <trkpt lat="59.4880967" lon="17.8762714">
        <ele>2.54065</ele>
        <time>2011-01-21T20:09:22Z</time>
      </trkpt>
      <trkpt lat="59.488045" lon="17.8761618">
        <ele>3.02124</ele>
        <time>2011-01-21T20:09:24Z</time>
      </trkpt>
      <trkpt lat="59.4879116" lon="17.8759085">
        <ele>4.46326</ele>
        <time>2011-01-21T20:09:29Z</time>
      </trkpt>
      <trkpt lat="59.487777" lon="17.8756568">
        <ele>5.90527</ele>
        <time>2011-01-21T20:09:34Z</time>
      </trkpt>
      <trkpt lat="59.4876528" lon="17.8754796">
        <ele>7.34717</ele>
        <time>2011-01-21T20:09:38Z</time>
      </trkpt>
      <trkpt lat="59.4875495" lon="17.8753594">
        <ele>8.30859</ele>
        <time>2011-01-21T20:09:42Z</time>
      </trkpt>
      <trkpt lat="59.4874041" lon="17.8752123">
        <ele>8.78918</ele>
        <time>2011-01-21T20:09:47Z</time>
      </trkpt>
      <trkpt lat="59.4873444" lon="17.8751803">
        <ele>8.78918</ele>
        <time>2011-01-21T20:09:49Z</time>
      </trkpt>
      <trkpt lat="59.4871872" lon="17.8750238">
        <ele>8.30859</ele>
        <time>2011-01-21T20:09:54Z</time>
      </trkpt>
      <trkpt lat="59.4869618" lon="17.8749103">
        <ele>9.75061</ele>
        <time>2011-01-21T20:10:00Z</time>
      </trkpt>
      <trkpt lat="59.4868137" lon="17.8749108">
        <ele>9.2699</ele>
        <time>2011-01-21T20:10:04Z</time>
      </trkpt>
      <trkpt lat="59.4866852" lon="17.8749769">
        <ele>10.2312</ele>
        <time>2011-01-21T20:10:08Z</time>
      </trkpt>
      <trkpt lat="59.486556" lon="17.8750906">
        <ele>11.6732</ele>
        <time>2011-01-21T20:10:13Z</time>
      </trkpt>
      <trkpt lat="59.4864296" lon="17.8751112">
        <ele>11.6732</ele>
        <time>2011-01-21T20:10:17Z</time>
      </trkpt>
      <trkpt lat="59.4862641" lon="17.8750626">
        <ele>12.1538</ele>
        <time>2011-01-21T20:10:21Z</time>
      </trkpt>
      <trkpt lat="59.4861361" lon="17.875018">
        <ele>12.1538</ele>
        <time>2011-01-21T20:10:25Z</time>
      </trkpt>
      <trkpt lat="59.4860687" lon="17.8749968">
        <ele>13.1151</ele>
        <time>2011-01-21T20:10:28Z</time>
      </trkpt>
      <trkpt lat="59.4859366" lon="17.8750093">
        <ele>14.0764</ele>
        <time>2011-01-21T20:10:32Z</time>
      </trkpt>
      <trkpt lat="59.4857655" lon="17.8751587">
        <ele>15.5184</ele>
        <time>2011-01-21T20:10:37Z</time>
      </trkpt>
      <trkpt lat="59.4856326" lon="17.8753699">
        <ele>15.999</ele>
        <time>2011-01-21T20:10:41Z</time>
      </trkpt>
      <trkpt lat="59.4855347" lon="17.8755728">
        <ele>15.999</ele>
        <time>2011-01-21T20:10:45Z</time>
      </trkpt>
      <trkpt lat="59.4854398" lon="17.8758176">
        <ele>15.5184</ele>
        <time>2011-01-21T20:10:49Z</time>
      </trkpt>
      <trkpt lat="59.4853159" lon="17.8761492">
        <ele>15.0377</ele>
        <time>2011-01-21T20:10:55Z</time>
      </trkpt>
      <trkpt lat="59.4852617" lon="17.8763742">
        <ele>13.1151</ele>
        <time>2011-01-21T20:10:59Z</time>
      </trkpt>
      <trkpt lat="59.4852597" lon="17.8765384">
        <ele>10.7118</ele>
        <time>2011-01-21T20:11:02Z</time>
      </trkpt>
      <trkpt lat="59.4853299" lon="17.8766503">
        <ele>8.30859</ele>
        <time>2011-01-21T20:11:05Z</time>
      </trkpt>
      <trkpt lat="59.4853938" lon="17.8766846">
        <ele>7.82788</ele>
        <time>2011-01-21T20:11:07Z</time>
      </trkpt>
      <trkpt lat="59.4855255" lon="17.8767487">
        <ele>7.82788</ele>
        <time>2011-01-21T20:11:11Z</time>
      </trkpt>
      <trkpt lat="59.4857197" lon="17.8769708">
        <ele>7.82788</ele>
        <time>2011-01-21T20:11:17Z</time>
      </trkpt>
      <trkpt lat="59.4858465" lon="17.8771532">
        <ele>8.78918</ele>
        <time>2011-01-21T20:11:21Z</time>
      </trkpt>
      <trkpt lat="59.485994" lon="17.877294">
        <ele>10.2312</ele>
        <time>2011-01-21T20:11:25Z</time>
      </trkpt>
      <trkpt lat="59.4860753" lon="17.8773903">
        <ele>10.7118</ele>
        <time>2011-01-21T20:11:27Z</time>
      </trkpt>
      <trkpt lat="59.4863795" lon="17.8776977">
        <ele>11.6732</ele>
        <time>2011-01-21T20:11:34Z</time>
      </trkpt>
      <trkpt lat="59.4865308" lon="17.8778767">
        <ele>13.5958</ele>
        <time>2011-01-21T20:11:38Z</time>
      </trkpt>
      <trkpt lat="59.4867739" lon="17.8781083">
        <ele>13.5958</ele>
        <time>2011-01-21T20:11:45Z</time>
      </trkpt>
      <trkpt lat="59.4869979" lon="17.878254">
        <ele>15.5184</ele>
        <time>2011-01-21T20:11:52Z</time>
      </trkpt>
      <trkpt lat="59.4871177" lon="17.8782137">
        <ele>13.5958</ele>
        <time>2011-01-21T20:11:56Z</time>
      </trkpt>
      <trkpt lat="59.4872436" lon="17.8780531">
        <ele>11.6732</ele>
        <time>2011-01-21T20:12:00Z</time>
      </trkpt>
      <trkpt lat="59.4874341" lon="17.8778463">
        <ele>10.2312</ele>
        <time>2011-01-21T20:12:05Z</time>
      </trkpt>
      <trkpt lat="59.487529" lon="17.8777847">
        <ele>8.78918</ele>
        <time>2011-01-21T20:12:07Z</time>
      </trkpt>
      <trkpt lat="59.4876217" lon="17.8777063">
        <ele>7.82788</ele>
        <time>2011-01-21T20:12:09Z</time>
      </trkpt>
      <trkpt lat="59.4877862" lon="17.8774579">
        <ele>7.34717</ele>
        <time>2011-01-21T20:12:13Z</time>
      </trkpt>
      <trkpt lat="59.4879661" lon="17.8771183">
        <ele>6.86646</ele>
        <time>2011-01-21T20:12:19Z</time>
      </trkpt>
      <trkpt lat="59.4880849" lon="17.8767777">
        <ele>7.34717</ele>
        <time>2011-01-21T20:12:24Z</time>
      </trkpt>
      <trkpt lat="59.4882001" lon="17.876541">
        <ele>7.82788</ele>
        <time>2011-01-21T20:12:29Z</time>
      </trkpt>
      <trkpt lat="59.4882097" lon="17.8764928">
        <ele>8.30859</ele>
        <time>2011-01-21T20:12:30Z</time>
      </trkpt>
      <trkpt lat="59.488162" lon="17.8762353">
        <ele>9.2699</ele>
        <time>2011-01-21T20:12:36Z</time>
      </trkpt>
      <trkpt lat="59.4880817" lon="17.876094">
        <ele>9.75061</ele>
        <time>2011-01-21T20:12:40Z</time>
      </trkpt>
      <trkpt lat="59.4879626" lon="17.8758836">
        <ele>11.6732</ele>
        <time>2011-01-21T20:12:45Z</time>
      </trkpt>
      <trkpt lat="59.4878539" lon="17.8756926">
        <ele>12.1538</ele>
        <time>2011-01-21T20:12:49Z</time>
      </trkpt>
      <trkpt lat="59.4876771" lon="17.8755101">
        <ele>12.6344</ele>
        <time>2011-01-21T20:12:54Z</time>
      </trkpt>
      <trkpt lat="59.4875834" lon="17.8754066">
        <ele>13.1151</ele>
        <time>2011-01-21T20:12:57Z</time>
      </trkpt>
      <trkpt lat="59.4874625" lon="17.875282">
        <ele>12.6344</ele>
        <time>2011-01-21T20:13:01Z</time>
      </trkpt>
      <trkpt lat="59.4873346" lon="17.8751219">
        <ele>11.6732</ele>
        <time>2011-01-21T20:13:05Z</time>
      </trkpt>
      <trkpt lat="59.4871923" lon="17.8749942">
        <ele>9.2699</ele>
        <time>2011-01-21T20:13:09Z</time>
      </trkpt>
      <trkpt lat="59.4870088" lon="17.8748718">
        <ele>7.82788</ele>
        <time>2011-01-21T20:13:14Z</time>
      </trkpt>
      <trkpt lat="59.4868424" lon="17.8748528">
        <ele>6.86646</ele>
        <time>2011-01-21T20:13:18Z</time>
      </trkpt>
      <trkpt lat="59.4866633" lon="17.8749547">
        <ele>6.86646</ele>
        <time>2011-01-21T20:13:23Z</time>
      </trkpt>
      <trkpt lat="59.4865503" lon="17.8750885">
        <ele>7.82788</ele>
        <time>2011-01-21T20:13:27Z</time>
      </trkpt>
      <trkpt lat="59.4864282" lon="17.8751717">
        <ele>7.82788</ele>
        <time>2011-01-21T20:13:31Z</time>
      </trkpt>
      <trkpt lat="59.4862994" lon="17.8751387">
        <ele>7.34717</ele>
        <time>2011-01-21T20:13:34Z</time>
      </trkpt>
      <trkpt lat="59.4861371" lon="17.8750564">
        <ele>7.34717</ele>
        <time>2011-01-21T20:13:38Z</time>
      </trkpt>
      <trkpt lat="59.4859978" lon="17.8750257">
        <ele>7.34717</ele>
        <time>2011-01-21T20:13:42Z</time>
      </trkpt>
      <trkpt lat="59.4858572" lon="17.8749909">
        <ele>7.82788</ele>
        <time>2011-01-21T20:13:46Z</time>
      </trkpt>
      <trkpt lat="59.485723" lon="17.8751429">
        <ele>8.30859</ele>
        <time>2011-01-21T20:13:50Z</time>
      </trkpt>
      <trkpt lat="59.4856106" lon="17.8753338">
        <ele>8.30859</ele>
        <time>2011-01-21T20:13:54Z</time>
      </trkpt>
      <trkpt lat="59.4854892" lon="17.8756491">
        <ele>8.78918</ele>
        <time>2011-01-21T20:13:59Z</time>
      </trkpt>
      <trkpt lat="59.4853993" lon="17.8758566">
        <ele>9.75061</ele>
        <time>2011-01-21T20:14:03Z</time>
      </trkpt>
      <trkpt lat="59.4853134" lon="17.8760789">
        <ele>10.2312</ele>
        <time>2011-01-21T20:14:07Z</time>
      </trkpt>
      <trkpt lat="59.4852502" lon="17.8763743">
        <ele>10.7118</ele>
        <time>2011-01-21T20:14:11Z</time>
      </trkpt>
      <trkpt lat="59.4852952" lon="17.8766446">
        <ele>10.7118</ele>
        <time>2011-01-21T20:14:15Z</time>
      </trkpt>
      <trkpt lat="59.4854171" lon="17.8767236">
        <ele>10.2312</ele>
        <time>2011-01-21T20:14:19Z</time>
      </trkpt>
      <trkpt lat="59.4855884" lon="17.8768263">
        <ele>10.2312</ele>
        <time>2011-01-21T20:14:24Z</time>
      </trkpt>
      <trkpt lat="59.4856948" lon="17.8769923">
        <ele>10.7118</ele>
        <time>2011-01-21T20:14:28Z</time>
      </trkpt>
      <trkpt lat="59.485845" lon="17.8771657">
        <ele>10.2312</ele>
        <time>2011-01-21T20:14:33Z</time>
      </trkpt>
      <trkpt lat="59.486033" lon="17.8773369">
        <ele>10.2312</ele>
        <time>2011-01-21T20:14:38Z</time>
      </trkpt>
      <trkpt lat="59.48622" lon="17.877546">
        <ele>11.1925</ele>
        <time>2011-01-21T20:14:43Z</time>
      </trkpt>
      <trkpt lat="59.4863679" lon="17.8776971">
        <ele>11.6732</ele>
        <time>2011-01-21T20:14:47Z</time>
      </trkpt>
      <trkpt lat="59.4864645" lon="17.8778133">
        <ele>11.6732</ele>
        <time>2011-01-21T20:14:50Z</time>
      </trkpt>
      <trkpt lat="59.4866166" lon="17.8779773">
        <ele>11.6732</ele>
        <time>2011-01-21T20:14:55Z</time>
      </trkpt>
      <trkpt lat="59.4866887" lon="17.8780401">
        <ele>12.1538</ele>
        <time>2011-01-21T20:14:57Z</time>
      </trkpt>
      <trkpt lat="59.4868317" lon="17.8781713">
        <ele>11.6732</ele>
        <time>2011-01-21T20:15:01Z</time>
      </trkpt>
    </trkseg>
  </trk>
</gpx>